Gosberton, United Kingdom
Current Conditions -  °F | °C
As of 3:50 AM on Saturday 20 Dec 2014 (Local Time) from EGXC Reporting Station
Light Rain Light Rain  
Wind Chill:   Ceiling: 3200
Heat Index:   Visibility: 6mi
Dew Point:   Wind: 17mph
Humidity: 81%   Direction: 240°WSW
Pressure: 30.06"   Gusts: NA
Location:  52.87°N, 0.16°W
Report Text: EGXC 200350Z 24015KT 9999 -RA BKN032 BKN050 06/03 Q1018 BLU
Loading
Personal Weather Stations






























Interactive Weather Map New forecast layout! Learn more

10-Day Weather Forecast

Advertisements
Track Severe Weather on mobile